createdAt,value
2023-10-10T00:01:47.945Z,3.10
2023-10-10T00:06:51.152Z,2.90
2023-10-10T00:11:54.421Z,2.17
2023-10-10T00:16:56.678Z,3.23
2023-10-10T00:21:58.993Z,2.70
2023-10-10T00:27:14.402Z,2.37
2023-10-10T00:32:24.178Z,2.40
2023-10-10T00:37:35.768Z,2.00
2023-10-10T00:42:38.460Z,2.80
2023-10-10T00:47:45.528Z,2.80
2023-10-10T00:52:49.908Z,2.63
2023-10-10T00:58:00.208Z,2.30
2023-10-10T01:03:28.394Z,2.90
2023-10-10T01:08:58.898Z,3.17
2023-10-10T01:14:01.543Z,2.33
2023-10-10T01:19:03.621Z,2.30
2023-10-10T01:24:08.833Z,2.70
2023-10-10T01:29:15.542Z,2.90
2023-10-10T01:34:40.265Z,3.43
2023-10-10T01:40:15.958Z,2.73
2023-10-10T01:45:20.483Z,3.30
2023-10-10T01:50:22.569Z,2.70
2023-10-10T01:55:27.695Z,2.50
2023-10-10T02:00:35.753Z,2.87
2023-10-10T02:05:38.699Z,2.70
2023-10-10T02:10:47.098Z,4.17
2023-10-10T02:15:48.946Z,3.10
2023-10-10T02:20:51.750Z,3.23
2023-10-10T02:25:54.640Z,3.93
2023-10-10T02:30:56.846Z,2.93
2023-10-10T02:35:59.269Z,3.17
2023-10-10T02:41:21.124Z,3.80
2023-10-10T02:46:39.236Z,3.47
2023-10-10T02:51:42.944Z,4.10
2023-10-10T02:56:44.858Z,4.10
2023-10-10T03:02:10.959Z,3.43
2023-10-10T03:07:20.663Z,3.27
2023-10-10T03:12:22.549Z,3.17
2023-10-10T03:17:44.203Z,3.40
2023-10-10T03:23:13.342Z,3.50
2023-10-10T03:28:23.516Z,3.80
2023-10-10T03:33:43.722Z,3.63
2023-10-10T03:38:48.586Z,4.17
2023-10-10T03:44:13.403Z,3.90
2023-10-10T03:49:35.660Z,3.53
2023-10-10T03:54:56.070Z,3.17
2023-10-10T04:00:18.217Z,3.50
2023-10-10T04:05:38.604Z,2.73
2023-10-10T04:11:05.358Z,2.57
2023-10-10T04:16:30.126Z,3.33
2023-10-10T04:21:50.530Z,2.63
2023-10-10T04:27:10.888Z,2.40
2023-10-10T04:32:31.488Z,3.00
2023-10-10T04:37:51.913Z,3.17
2023-10-10T04:43:12.556Z,3.07
2023-10-10T04:48:33.092Z,2.93
2023-10-10T04:53:53.838Z,3.43
2023-10-10T04:59:14.133Z,3.03
2023-10-10T05:04:34.587Z,3.37
2023-10-10T05:09:54.919Z,2.67
2023-10-10T05:15:15.666Z,2.80
2023-10-10T05:20:40.576Z,2.80
2023-10-10T05:25:42.788Z,2.63
2023-10-10T05:30:45.346Z,3.00
2023-10-10T05:35:50.170Z,2.83
2023-10-10T05:40:52.470Z,2.80
2023-10-10T05:45:55.147Z,2.53
2023-10-10T05:50:58.688Z,2.63
2023-10-10T05:56:13.516Z,2.80
2023-10-10T06:01:16.339Z,4.17
2023-10-10T06:06:19.520Z,3.10
2023-10-10T06:11:21.778Z,3.00
2023-10-10T06:16:25.175Z,3.20
2023-10-10T06:21:27.244Z,3.03
2023-10-10T06:26:29.812Z,3.10
2023-10-10T06:31:36.339Z,3.00
2023-10-10T06:36:39.132Z,3.50
2023-10-10T06:41:43.259Z,3.67
2023-10-10T06:46:49.499Z,3.90
2023-10-10T06:51:51.417Z,3.60
2023-10-10T06:57:01.974Z,4.20
2023-10-10T07:02:22.816Z,3.40
2023-10-10T07:07:27.641Z,3.30
2023-10-10T07:12:30.057Z,3.57
2023-10-10T07:17:32.149Z,3.70
2023-10-10T07:22:36.181Z,3.23
2023-10-10T07:27:41.146Z,4.37
2023-10-10T07:32:51.488Z,4.37
2023-10-10T07:37:54.065Z,3.27
2023-10-10T07:43:04.527Z,3.73
2023-10-10T07:48:06.964Z,3.80
2023-10-10T07:53:13.848Z,3.00
2023-10-10T07:58:17.369Z,3.20
2023-10-10T08:03:22.445Z,3.07
2023-10-10T08:08:27.090Z,3.40
2023-10-10T08:13:29.935Z,2.97
2023-10-10T08:18:45.539Z,3.03
2023-10-10T08:23:47.799Z,3.40
2023-10-10T08:28:50.441Z,3.13
2023-10-10T08:33:52.487Z,3.67
2023-10-10T08:38:59.068Z,3.80
2023-10-10T08:44:03.060Z,3.50
2023-10-10T08:49:06.047Z,4.03
2023-10-10T08:54:11.272Z,4.03
2023-10-10T08:59:13.717Z,4.33
2023-10-10T09:04:20.996Z,4.60
2023-10-10T09:09:36.288Z,5.10
2023-10-10T09:14:40.843Z,4.90
2023-10-10T09:19:48.097Z,4.47
2023-10-10T09:24:50.722Z,5.07
2023-10-10T09:29:57.201Z,5.10
2023-10-10T09:35:00.101Z,5.00
2023-10-10T09:40:06.208Z,4.63
2023-10-10T09:45:19.132Z,4.60
2023-10-10T09:50:22.827Z,6.00
2023-10-10T09:55:26.954Z,4.90
2023-10-10T10:00:47.040Z,4.60
2023-10-10T10:06:29.839Z,5.10
2023-10-10T10:11:37.299Z,5.30
2023-10-10T10:16:53.624Z,4.57
2023-10-10T10:22:14.788Z,5.10
2023-10-10T10:27:33.124Z,4.57
2023-10-10T10:32:36.479Z,5.10
2023-10-10T10:37:40.827Z,5.20
2023-10-10T10:42:53.234Z,4.67
2023-10-10T10:48:01.054Z,4.03
2023-10-10T10:53:09.672Z,5.13
2023-10-10T10:58:20.460Z,4.70
2023-10-10T11:03:25.185Z,4.57
2023-10-10T11:08:57.188Z,3.83
2023-10-10T11:14:16.871Z,4.30
2023-10-10T11:19:24.958Z,4.67
2023-10-10T11:24:32.499Z,4.00
2023-10-10T11:29:51.983Z,4.00
2023-10-10T11:34:57.885Z,4.20
2023-10-10T11:40:28.330Z,4.57
2023-10-10T11:45:30.920Z,4.13
2023-10-10T11:50:50.328Z,4.70
2023-10-10T11:56:18.973Z,4.03
2023-10-10T12:01:40.874Z,3.73
2023-10-10T12:06:43.024Z,4.53
2023-10-10T12:11:44.897Z,4.00
2023-10-10T12:16:51.396Z,3.93
2023-10-10T12:21:53.431Z,4.23
2023-10-10T12:26:55.469Z,4.90
2023-10-10T12:31:57.961Z,3.90
2023-10-10T12:37:00.904Z,4.90
2023-10-10T12:42:03.010Z,4.10
2023-10-10T12:47:07.916Z,4.20
2023-10-10T12:52:13.486Z,4.80
2023-10-10T12:57:16.357Z,4.17
2023-10-10T13:02:18.849Z,3.67
2023-10-10T13:07:20.876Z,4.07
2023-10-10T13:12:33.842Z,3.80
2023-10-10T13:17:51.468Z,4.53
2023-10-10T13:22:53.620Z,4.70
2023-10-10T13:27:55.500Z,4.40
2023-10-10T13:32:57.501Z,3.73
2023-10-10T13:37:59.484Z,4.17
2023-10-10T13:43:07.539Z,4.47
2023-10-10T13:48:10.066Z,4.03
2023-10-10T13:53:15.933Z,2.90
2023-10-10T13:58:18.178Z,3.43
2023-10-10T14:03:30.227Z,3.60
2023-10-10T14:08:32.777Z,3.30
2023-10-10T14:13:35.718Z,3.47
2023-10-10T14:18:44.080Z,3.30
2023-10-10T14:23:46.882Z,3.80
2023-10-10T14:28:52.141Z,3.50
2023-10-10T14:33:56.013Z,2.87
2023-10-10T14:39:01.318Z,2.93
2023-10-10T14:44:04.772Z,3.20
2023-10-10T14:49:06.933Z,3.87
2023-10-10T14:54:13.160Z,4.10
2023-10-10T14:59:21.984Z,3.37
2023-10-10T15:04:23.997Z,3.37
2023-10-10T15:09:26.655Z,3.40
2023-10-10T15:14:35.466Z,2.80
2023-10-10T15:19:37.379Z,3.03
2023-10-10T15:24:43.054Z,2.83
2023-10-10T15:29:45.205Z,2.57
2023-10-10T15:34:47.738Z,2.67
2023-10-10T15:39:49.644Z,2.80
2023-10-10T15:44:51.643Z,2.90
2023-10-10T15:50:01.349Z,4.07
2023-10-10T15:55:07.203Z,3.27
2023-10-10T16:00:15.293Z,3.80
2023-10-10T16:05:17.485Z,4.60
2023-10-10T16:10:19.513Z,3.43
2023-10-10T16:15:30.479Z,2.83
2023-10-10T16:20:36.912Z,3.37
2023-10-10T16:25:39.580Z,2.90
2023-10-10T16:30:42.769Z,3.10
2023-10-10T16:35:47.551Z,2.67
2023-10-10T16:40:51.365Z,2.70
2023-10-10T16:45:53.365Z,2.30
2023-10-10T16:50:55.392Z,2.63
2023-10-10T16:56:07.812Z,3.20
2023-10-10T17:01:16.725Z,2.77
2023-10-10T17:06:23.763Z,2.80
2023-10-10T17:11:25.824Z,3.00
2023-10-10T17:16:31.042Z,2.80
2023-10-10T17:21:35.436Z,2.60
2023-10-10T17:26:38.343Z,3.00
2023-10-10T17:31:44.001Z,3.50
2023-10-10T17:36:46.000Z,3.27
2023-10-10T17:41:49.281Z,3.00
2023-10-10T17:46:53.350Z,2.90
2023-10-10T17:51:56.326Z,3.27
2023-10-10T17:56:58.407Z,2.33
2023-10-10T18:02:00.882Z,2.67
2023-10-10T18:07:04.127Z,3.20
2023-10-10T18:12:06.266Z,2.53
2023-10-10T18:17:11.171Z,2.43
2023-10-10T18:22:13.019Z,3.33
2023-10-10T18:27:15.892Z,3.27
2023-10-10T18:32:18.979Z,3.50
2023-10-10T18:37:20.908Z,4.20
2023-10-10T18:42:22.810Z,5.53
2023-10-10T18:47:24.763Z,5.30
2023-10-10T18:52:26.711Z,3.80
2023-10-10T18:57:29.620Z,3.83
2023-10-10T19:02:32.097Z,3.50
2023-10-10T19:07:35.990Z,2.90
2023-10-10T19:12:40.450Z,3.30
2023-10-10T19:17:50.365Z,3.33
2023-10-10T19:22:53.221Z,3.70
2023-10-10T19:27:56.463Z,3.60
2023-10-10T19:32:58.804Z,3.10
2023-10-10T19:38:00.909Z,4.33
2023-10-10T19:43:03.321Z,4.10
2023-10-10T19:48:06.954Z,3.80
2023-10-10T19:53:13.933Z,2.57
2023-10-10T19:58:16.283Z,3.17
2023-10-10T20:03:28.948Z,3.10
2023-10-10T20:08:35.635Z,3.10
2023-10-10T20:13:38.060Z,3.00
2023-10-10T20:18:44.960Z,3.13
2023-10-10T20:23:47.258Z,3.50
2023-10-10T20:28:49.677Z,3.30
2023-10-10T20:33:52.137Z,4.07
2023-10-10T20:38:54.345Z,3.57
2023-10-10T20:43:56.302Z,4.57
2023-10-10T20:48:58.130Z,3.20
2023-10-10T20:54:00.254Z,3.20
2023-10-10T20:59:02.110Z,3.20
2023-10-10T21:04:05.707Z,3.20
2023-10-10T21:09:07.913Z,3.53
2023-10-10T21:14:11.666Z,4.57
2023-10-10T21:19:14.805Z,3.33
2023-10-10T21:24:18.686Z,3.97
2023-10-10T21:29:22.432Z,3.97
2023-10-10T21:34:30.147Z,3.43
2023-10-10T21:39:42.842Z,2.93
2023-10-10T21:44:48.389Z,3.27
2023-10-10T21:49:57.974Z,3.70
2023-10-10T21:55:07.218Z,3.57
2023-10-10T22:00:28.349Z,3.43
2023-10-10T22:05:36.134Z,4.00
2023-10-10T22:10:50.776Z,2.80
2023-10-10T22:16:03.104Z,3.23
2023-10-10T22:21:05.109Z,2.90
2023-10-10T22:26:16.035Z,3.30
2023-10-10T22:31:21.622Z,3.50
2023-10-10T22:36:28.490Z,3.90
2023-10-10T22:41:31.129Z,3.07
2023-10-10T22:46:35.826Z,2.87
2023-10-10T22:51:40.409Z,3.10
2023-10-10T22:56:46.007Z,2.53
2023-10-10T23:01:48.469Z,4.13
2023-10-10T23:06:59.183Z,3.33
2023-10-10T23:12:14.692Z,2.50
2023-10-10T23:17:19.776Z,3.70
2023-10-10T23:22:34.654Z,3.27
2023-10-10T23:27:45.186Z,3.30
2023-10-10T23:32:48.203Z,3.17
2023-10-10T23:38:01.434Z,3.70
2023-10-10T23:43:04.520Z,2.83
2023-10-10T23:48:06.561Z,3.30
2023-10-10T23:53:09.660Z,3.87
2023-10-10T23:58:14.346Z,3.47
